Front Circassia — V7JX6 — position and weather

sailwx.info

Track history (hours):
 
Tides and Currents Weather Stations Pressure Air Temp Water Temp Dewpoint Dewpoint Depression Visibility Wind Speed Wind Dir Waves Ship Positions

Front Circassia

Last reported at 2014-Sep-11 00:33 UTC. Time now 2014-Sep-21 02:05 UTC.
Position N 25°13' E 057°52'.
Warning: this ship's position is 10 days out of date.

Length 333 m; draft 20 m.

Type: Tanker. MMSI: 538002584.

Date/timePositionNaut miles runAvg speedWind from/ knotsBaromVisibWave heightAir tempDewpointWater temp
2014-Sep-11 00:33N 25°13' E 057°52'1313.2
2014-Sep-10 23:33N 25°20' E 057°40'1313.1
2014-Sep-10 22:33N 25°27' E 057°28'1312.7
2014-Sep-10 21:33N 25°33' E 057°15'1312.9
2014-Sep-10 20:33N 25°43' E 057°06'1312.9
2014-Sep-10 19:33N 25°54' E 056°59'1312.6
2014-Sep-10 18:33N 26°05' E 056°52'1212.0
2014-Sep-10 17:33N 26°15' E 056°45'  
2014-Sep-06 22:33N 27°04' E 050°17'0 0.1
2014-Sep-06 21:27N 27°04' E 050°17'12 6.3
2014-Sep-06 19:33N 27°07' E 050°30'1010.0
2014-Sep-06 18:33N 27°07' E 050°41'  
Track history (hours):
 
Tides and Currents Weather Stations Pressure Air Temp Water Temp Dewpoint Dewpoint Depression Visibility Wind Speed Wind Dir Waves Ship Positions

Front Circassia

Last reported at 2014-Sep-11 00:33 UTC. Time now 2014-Sep-21 02:05 UTC.
Position N 25°13' E 057°52'.
Warning: this ship's position is 10 days out of date.

Length 333 m; draft 20 m.

Type: Tanker. MMSI: 538002584.

Date/timePositionNaut miles runAvg speedWind from/ knotsBaromVisibWave heightAir tempDewpointWater temp
2014-Sep-11 00:33N 25°13' E 057°52'1313.2
2014-Sep-10 23:33N 25°20' E 057°40'1313.1
2014-Sep-10 22:33N 25°27' E 057°28'1312.7
2014-Sep-10 21:33N 25°33' E 057°15'1312.9
2014-Sep-10 20:33N 25°43' E 057°06'1312.9
2014-Sep-10 19:33N 25°54' E 056°59'1312.6
2014-Sep-10 18:33N 26°05' E 056°52'1212.0
2014-Sep-10 17:33N 26°15' E 056°45'  
2014-Sep-06 22:33N 27°04' E 050°17'0 0.1
2014-Sep-06 21:27N 27°04' E 050°17'12 6.3
2014-Sep-06 19:33N 27°07' E 050°30'1010.0
2014-Sep-06 18:33N 27°07' E 050°41'  

Dump ship's entire track history